Terminal Aerodrome Forecast
Issued by NWS Billings, MT

Home | Current Version | Previous Version | Graphics & Text | Print | Product List | Glossary On
Versions: 1 2 3 4 5 6 7 8 9 10 11 12 13 14 15 16 17 18 19 20 21 22 23 24 25 26 27 28 29 30
383
FTUS45 KBYZ 241740
TAFMLS
TAF
KMLS 241740Z 2418/2518 VRB06KT P6SM FEW070 SCT150
     FM242100 12008KT P6SM SCT070 SCT110
     FM250000 06008KT P6SM VCTS BKN060CB BKN100
     FM250600 03009KT P6SM -SHRA SCT025 OVC040
     FM250900 01007KT P6SM -SHRA SCT015 OVC030
     FM251400 36014KT P6SM -SHRA FEW007 BKN015 OVC025=

USA.gov is the U.S. government's official web portal to all federal, state and local government web resources and services.